Time;durP1;ratioP1;P1;durP2;ratioP2;P2;SDS_P1;SDS_P2;PMS_P1;PMS_P2;Temp;Humidity;BMP_temperature;BMP_pressure;BME280_temperature;BME280_humidity;BME280_pressure;Samples;Min_cycle;Max_cycle;Signal;HPM_P1;HPM_P2
2023/06/06 00:00:07;;;;;;;;;;;21.20;85.00;21.30;99295.00;;;;344009;28;95456;-88
2023/06/06 00:00:20;;;;;;;;;;;21.20;85.20;21.30;99306.00;;;;339385;28;82478;-88
2023/06/06 00:00:32;;;;;;;;;;;21.20;85.00;21.20;99306.00;;;;341099;28;96411;-88
2023/06/06 00:00:44;;;;;;;;;;;21.10;85.50;21.30;99299.00;;;;342154;28;82449;-88
2023/06/06 00:00:57;;;;;;;;;;;21.20;85.00;21.30;99307.00;;;;341215;28;95780;-88
2023/06/06 00:01:09;;;;;;;;;;;21.10;84.80;21.30;99293.00;;;;343301;28;83470;-88
2023/06/06 00:01:23;;;;;;;;;;;21.10;84.90;21.30;99298.00;;;;343989;28;96334;-88
2023/06/06 00:01:36;;;;;;;;;;;21.20;85.20;21.30;99299.00;;;;339342;28;83161;-88
2023/06/06 00:01:49;;;;;;;;;;;21.20;85.00;21.30;99308.00;;;;339832;28;98094;-88
2023/06/06 00:02:01;;;;;;;;;;;21.10;85.00;21.20;99308.00;;;;344763;28;83519;-88
2023/06/06 00:02:12;;;;;;;;;;;21.10;85.30;21.10;99296.00;;;;341380;28;93804;-88
2023/06/06 00:02:26;;;;;;;;;;;21.20;85.60;21.10;99305.00;;;;341977;28;83499;-88
2023/06/06 00:02:40;;;;;;;;;;;21.10;86.00;21.10;99304.00;;;;341258;28;94030;-88
2023/06/06 00:02:53;;;;;;;;;;;21.10;86.30;21.20;99305.00;;;;342131;28;83308;-88
2023/06/06 00:03:05;;;;;;;;;;;21.10;85.90;21.20;99300.00;;;;342574;28;97030;-88
2023/06/06 00:03:20;;;;;;;;;;;21.10;86.30;21.30;99300.00;;;;342012;28;83274;-89
2023/06/06 00:03:33;;;;;;;;;;;21.10;85.60;21.40;99308.00;;;;341275;28;96016;-88
2023/06/06 00:03:45;;;;;;;;;;;21.10;85.30;21.30;99308.00;;;;346252;28;83444;-88
2023/06/06 00:03:57;;;;;;;;;;;21.10;85.30;21.40;99310.00;;;;343984;28;94790;-87
2023/06/06 00:04:10;;;;;;;;;;;21.10;85.20;21.30;99311.00;;;;343417;28;82473;-88
2023/06/06 00:04:22;;;;;;;;;;;21.10;85.40;21.40;99296.00;;;;344109;28;92782;-88
2023/06/06 00:04:35;;;;;;;;;;;21.10;85.50;21.50;99305.00;;;;344742;28;83372;-88
2023/06/06 00:04:49;;;;;;;;;;;21.10;85.30;21.40;99300.00;;;;342689;28;93782;-88
2023/06/06 00:05:02;;;;;;;;;;;21.10;85.00;21.40;99311.00;;;;343413;28;83379;-88
2023/06/06 00:05:14;;;;;;;;;;;21.10;85.10;21.30;99305.00;;;;341241;28;96604;-88
2023/06/06 00:05:27;;;;;;;;;;;21.10;85.40;21.30;99304.00;;;;342059;28;83306;-88
2023/06/06 00:05:39;;;;;;;;;;;21.10;85.90;21.30;99310.00;;;;342587;28;96432;-88
2023/06/06 00:05:51;;;;;;;;;;;21.10;85.80;21.30;99309.00;;;;344803;28;82489;-88
2023/06/06 00:06:03;;;;;;;;;;;21.10;85.60;21.30;99304.00;;;;341293;28;97278;-88
2023/06/06 00:06:20;;;;;;;;;;;21.10;85.80;21.30;99304.00;;;;343485;28;83389;-88
2023/06/06 00:06:33;;;;;;;;;;;21.10;85.50;21.40;99305.00;;;;342550;28;96022;-88
2023/06/06 00:06:45;;;;;;;;;;;21.10;85.50;21.40;99304.00;;;;344883;28;82535;-88
2023/06/06 00:06:57;;;;;;;;;;;21.10;85.60;21.30;99307.00;;;;344035;28;94266;-88
2023/06/06 00:07:12;;;;;;;;;;;21.10;85.50;21.30;99298.00;;;;343336;28;83463;-88
2023/06/06 00:07:24;;;;;;;;;;;21.10;85.50;21.30;99300.00;;;;340027;28;94030;-88
2023/06/06 00:07:36;;;;;;;;;;;21.10;85.90;21.30;99309.00;;;;342088;28;82484;-88
2023/06/06 00:07:48;;;;;;;;;;;21.10;85.70;21.40;99299.00;;;;344027;28;94512;-88
2023/06/06 00:08:01;;;;;;;;;;;21.10;85.90;21.30;99304.00;;;;344756;28;83350;-88
2023/06/06 00:08:13;;;;;;;;;;;21.10;86.60;21.30;99304.00;;;;343887;28;97721;-88
2023/06/06 00:08:28;;;;;;;;;;;21.10;86.30;21.40;99308.00;;;;344735;28;83504;-88
2023/06/06 00:08:42;;;;;;;;;;;21.10;86.00;21.40;99307.00;;;;341301;28;94013;-88
2023/06/06 00:08:54;;;;;;;;;;;21.10;86.20;21.40;99305.00;;;;344716;28;83309;-88
2023/06/06 00:09:06;;;;;;;;;;;21.10;86.00;21.50;99298.00;;;;344017;28;94440;-88
2023/06/06 00:09:18;;;;;;;;;;;21.10;86.30;21.40;99300.00;;;;343497;28;82240;-88
2023/06/06 00:09:30;;;;;;;;;;;21.10;86.40;21.40;99299.00;;;;342646;28;96101;-88
2023/06/06 00:09:43;;;;;;;;;;;21.10;86.20;21.30;99299.00;;;;340680;28;82518;-88
2023/06/06 00:09:54;;;;;;;;;;;21.10;86.20;21.30;99291.00;;;;342546;28;95685;-88
2023/06/06 00:10:13;;;;;;;;;;;21.10;86.30;21.20;99310.00;;;;343425;28;83388;-89
2023/06/06 00:10:25;;;;;;;;;;;21.10;86.90;21.20;99295.00;;;;338568;28;95423;-88
2023/06/06 00:10:37;;;;;;;;;;;21.10;87.00;21.30;99296.00;;;;346116;28;83492;-88
2023/06/06 00:10:48;;;;;;;;;;;21.10;86.60;21.30;99296.00;;;;344016;28;96364;-88
2023/06/06 00:11:00;;;;;;;;;;;21.10;86.60;21.30;99295.00;;;;343415;28;83437;-88
2023/06/06 00:11:12;;;;;;;;;;;21.10;86.60;21.30;99297.00;;;;339957;28;94187;-88
2023/06/06 00:11:25;;;;;;;;;;;21.10;86.60;21.30;99300.00;;;;343447;28;83383;-88
2023/06/06 00:11:39;;;;;;;;;;;21.10;86.80;21.20;99305.00;;;;341242;28;95943;-88
2023/06/06 00:11:51;;;;;;;;;;;21.10;86.60;21.20;99308.00;;;;344683;28;83716;-88
2023/06/06 00:12:04;;;;;;;;;;;21.10;86.80;21.10;99295.00;;;;345351;28;97401;-88
2023/06/06 00:12:16;;;;;;;;;;;21.10;87.10;21.10;99304.00;;;;344851;28;83441;-88
2023/06/06 00:12:28;;;;;;;;;;;21.00;86.90;21.20;99305.00;;;;339886;28;93656;-88
2023/06/06 00:12:52;;;;;;;;;;;21.10;86.60;21.20;99308.00;;;;343393;28;83450;-88
2023/06/06 00:13:04;;;;;;;;;;;21.10;86.70;21.30;99298.00;;;;344003;28;96616;-88
2023/06/06 00:13:17;;;;;;;;;;;21.10;87.00;21.40;99304.00;;;;342054;28;82575;-88
2023/06/06 00:13:31;;;;;;;;;;;21.00;87.40;21.40;99298.00;;;;341393;28;96505;-87
2023/06/06 00:13:43;;;;;;;;;;;21.10;87.50;21.40;99297.00;;;;343485;28;83418;-88
2023/06/06 00:13:56;;;;;;;;;;;21.10;87.70;21.30;99305.00;;;;344098;28;93819;-88
2023/06/06 00:14:09;;;;;;;;;;;21.10;87.70;21.20;99311.00;;;;342158;28;83238;-88
2023/06/06 00:14:22;;;;;;;;;;;21.00;88.00;21.00;99307.00;;;;344007;28;94623;-88
2023/06/06 00:14:34;;;;;;;;;;;21.00;87.90;21.10;99295.00;;;;342099;28;83300;-88
2023/06/06 00:14:46;;;;;;;;;;;21.00;87.80;21.20;99305.00;;;;342542;28;97381;-88
2023/06/06 00:15:01;;;;;;;;;;;21.10;87.80;21.30;99296.00;;;;343496;28;83403;-88
2023/06/06 00:15:15;;;;;;;;;;;21.00;87.80;21.20;99305.00;;;;339902;28;96660;-88
2023/06/06 00:15:28;;;;;;;;;;;21.10;87.80;21.20;99313.00;;;;343452;28;83367;-88
2023/06/06 00:15:40;;;;;;;;;;;21.00;88.20;21.20;99313.00;;;;342710;28;93824;-88
2023/06/06 00:15:54;;;;;;;;;;;21.00;87.70;21.20;99307.00;;;;341906;28;83477;-88
2023/06/06 00:16:06;;;;;;;;;;;21.00;87.60;21.20;99309.00;;;;342677;28;96503;-88
2023/06/06 00:16:17;;;;;;;;;;;21.00;88.10;21.10;99309.00;;;;343358;28;83330;-88
2023/06/06 00:16:32;;;;;;;;;;;21.00;88.40;21.10;99309.00;;;;343819;28;93151;-88
2023/06/06 00:16:48;;;;;;;;;;;21.00;88.40;21.10;99313.00;;;;344913;28;83287;-88
2023/06/06 00:17:01;;;;;;;;;;;21.00;88.20;21.10;99313.00;;;;342574;28;97418;-88
2023/06/06 00:17:13;;;;;;;;;;;21.00;88.20;21.10;99309.00;;;;342039;28;82532;-88
2023/06/06 00:17:25;;;;;;;;;;;21.00;88.20;20.90;99316.00;;;;343966;28;96670;-88
2023/06/06 00:17:38;;;;;;;;;;;21.00;88.60;21.00;99309.00;;;;340641;28;82446;-88
2023/06/06 00:17:55;;;;;;;;;;;20.90;88.60;21.20;99309.00;;;;342513;28;97643;-88
2023/06/06 00:18:07;;;;;;;;;;;20.90;88.60;21.10;99311.00;;;;344825;28;83377;-88
2023/06/06 00:18:19;;;;;;;;;;;21.00;89.50;21.00;99309.00;;;;338531;28;96631;-87
2023/06/06 00:18:31;;;;;;;;;;;20.90;89.20;21.00;99308.00;;;;343347;28;83490;-88
2023/06/06 00:18:45;;;;;;;;;;;21.00;89.20;21.00;99311.00;;;;344020;28;96504;-88
2023/06/06 00:18:57;;;;;;;;;;;20.90;89.00;21.00;99312.00;;;;344778;28;83287;-87
2023/06/06 00:19:09;;;;;;;;;;;20.90;88.90;21.00;99321.00;;;;341219;28;95203;-88
2023/06/06 00:19:22;;;;;;;;;;;20.90;89.40;21.00;99321.00;;;;341975;28;83495;-88
2023/06/06 00:19:35;;;;;;;;;;;20.90;89.30;21.10;99314.00;;;;344081;28;94336;-88
2023/06/06 00:19:47;;;;;;;;;;;20.90;89.00;21.00;99315.00;;;;343360;28;83388;-88
2023/06/06 00:19:59;;;;;;;;;;;20.90;89.40;21.10;99312.00;;;;341237;28;97025;-88
2023/06/06 00:20:11;;;;;;;;;;;20.90;89.30;21.20;99322.00;;;;344770;28;82473;-88
2023/06/06 00:20:24;;;;;;;;;;;20.90;89.40;21.20;99318.00;;;;343959;28;97005;-88
2023/06/06 00:20:36;;;;;;;;;;;20.90;89.50;20.80;99315.00;;;;342051;28;83382;-88
2023/06/06 00:20:48;;;;;;;;;;;20.90;90.10;21.00;99313.00;;;;339937;28;96356;-88
2023/06/06 00:21:00;;;;;;;;;;;20.90;90.00;20.90;99320.00;;;;342037;28;83384;-88
2023/06/06 00:21:12;;;;;;;;;;;20.90;89.90;20.90;99315.00;;;;342413;28;97916;-88
2023/06/06 00:21:24;;;;;;;;;;;20.90;90.00;21.00;99317.00;;;;340760;28;83358;-88
2023/06/06 00:21:36;;;;;;;;;;;20.90;90.00;21.00;99323.00;;;;341268;28;96420;-88
2023/06/06 00:21:48;;;;;;;;;;;20.90;90.00;20.90;99325.00;;;;344721;28;83366;-88
2023/06/06 00:22:01;;;;;;;;;;;20.90;90.10;20.60;99318.00;;;;341318;28;95252;-87
2023/06/06 00:22:14;;;;;;;;;;;20.80;90.70;20.70;99318.00;;;;344786;28;83373;-88
2023/06/06 00:22:26;;;;;;;;;;;20.80;90.70;20.50;99324.00;;;;343944;28;96356;-88
2023/06/06 00:22:38;;;;;;;;;;;20.70;91.00;20.60;99326.00;;;;342025;28;82467;-88
2023/06/06 00:22:53;;;;;;;;;;;20.70;91.00;20.70;99317.00;;;;342702;28;94167;-88
2023/06/06 00:23:06;;;;;;;;;;;20.70;91.20;20.30;99326.00;;;;342030;28;83411;-88
2023/06/06 00:23:18;;;;;;;;;;;20.60;91.60;20.30;99330.00;;;;342501;28;97484;-88
2023/06/06 00:23:30;;;;;;;;;;;20.50;91.40;20.50;99325.00;;;;346209;28;83335;-87
2023/06/06 00:23:44;;;;;;;;;;;20.50;91.20;20.70;99329.00;;;;341091;28;95699;-88
2023/06/06 00:23:57;;;;;;;;;;;20.60;91.20;20.70;99326.00;;;;343249;28;83411;-88
2023/06/06 00:24:11;;;;;;;;;;;20.60;91.40;20.70;99318.00;;;;342656;28;96293;-88
2023/06/06 00:24:24;;;;;;;;;;;20.60;91.40;20.60;99317.00;;;;344873;28;82386;-88
2023/06/06 00:24:36;;;;;;;;;;;20.60;91.50;20.70;99326.00;;;;339893;28;94381;-90
2023/06/06 00:24:54;;;;;;;;;;;20.60;91.20;20.70;99329.00;;;;343405;28;83640;-88
2023/06/06 00:25:06;;;;;;;;;;;20.50;91.40;20.60;99328.00;;;;344041;28;95359;-88
2023/06/06 00:25:18;;;;;;;;;;;20.50;91.50;20.70;99325.00;;;;340707;28;83472;-88
2023/06/06 00:25:30;;;;;;;;;;;20.50;91.20;20.60;99324.00;;;;342625;28;96419;-88
2023/06/06 00:25:42;;;;;;;;;;;20.50;91.30;20.50;99325.00;;;;343473;28;83294;-88
2023/06/06 00:25:54;;;;;;;;;;;20.50;91.80;20.60;99323.00;;;;339800;28;95173;-88
2023/06/06 00:26:06;;;;;;;;;;;20.50;91.60;20.50;99327.00;;;;342051;28;83407;-88
2023/06/06 00:26:17;;;;;;;;;;;20.50;91.80;20.50;99325.00;;;;341291;28;96334;-89
2023/06/06 00:26:29;;;;;;;;;;;20.40;92.00;20.50;99328.00;;;;344774;28;82572;-88
2023/06/06 00:26:41;;;;;;;;;;;20.40;91.80;20.50;99320.00;;;;342620;28;93861;-88
2023/06/06 00:26:53;;;;;;;;;;;20.40;91.80;20.40;99329.00;;;;344831;28;82422;-88
2023/06/06 00:27:05;;;;;;;;;;;20.40;92.00;20.40;99327.00;;;;343992;28;95309;-88
2023/06/06 00:27:17;;;;;;;;;;;20.40;91.90;20.40;99333.00;;;;340717;28;82542;-88
2023/06/06 00:27:29;;;;;;;;;;;20.40;91.90;20.30;99329.00;;;;339998;28;93995;-87
2023/06/06 00:27:41;;;;;;;;;;;20.40;92.20;20.20;99319.00;;;;342156;28;82498;-88
2023/06/06 00:27:53;;;;;;;;;;;20.30;92.10;20.30;99330.00;;;;341265;28;95746;-88
2023/06/06 00:28:05;;;;;;;;;;;20.30;92.20;20.10;99318.00;;;;340760;28;83406;-88
2023/06/06 00:28:16;;;;;;;;;;;20.30;92.10;20.10;99318.00;;;;340004;28;94252;-88
2023/06/06 00:28:28;;;;;;;;;;;20.30;92.00;20.10;99324.00;;;;343435;28;82502;-88
2023/06/06 00:28:40;;;;;;;;;;;20.30;92.30;20.20;99317.00;;;;345382;28;96874;-88
2023/06/06 00:28:53;;;;;;;;;;;20.30;92.30;20.30;99321.00;;;;344796;28;83520;-88
2023/06/06 00:29:05;;;;;;;;;;;20.20;91.90;20.40;99326.00;;;;342623;28;96919;-88
2023/06/06 00:29:17;;;;;;;;;;;20.30;91.80;20.30;99329.00;;;;346126;28;82480;-88
2023/06/06 00:29:29;;;;;;;;;;;20.30;92.00;20.40;99328.00;;;;339884;28;97653;-89
2023/06/06 00:29:41;;;;;;;;;;;20.30;91.80;20.50;99334.00;;;;343410;28;83474;-88
2023/06/06 00:29:52;;;;;;;;;;;20.30;91.70;20.40;99326.00;;;;343960;28;96590;-88
2023/06/06 00:30:05;;;;;;;;;;;20.20;92.00;20.30;99329.00;;;;344867;28;83337;-88
2023/06/06 00:30:17;;;;;;;;;;;20.30;92.40;20.30;99331.00;;;;341336;28;96339;-88
2023/06/06 00:30:29;;;;;;;;;;;20.20;92.40;20.30;99337.00;;;;343386;28;82485;-89
2023/06/06 00:30:41;;;;;;;;;;;20.20;92.30;20.50;99337.00;;;;342691;28;96288;-88
2023/06/06 00:30:53;;;;;;;;;;;20.20;92.00;20.40;99335.00;;;;342026;28;83458;-88
2023/06/06 00:31:05;;;;;;;;;;;20.20;92.00;20.40;99330.00;;;;343999;28;95902;-88
2023/06/06 00:31:16;;;;;;;;;;;20.20;91.80;20.40;99333.00;;;;344877;28;83416;-88
2023/06/06 00:31:28;;;;;;;;;;;20.20;91.80;20.40;99327.00;;;;341318;28;95176;-88
2023/06/06 00:31:40;;;;;;;;;;;20.30;91.80;20.50;99326.00;;;;343639;28;83304;-88
2023/06/06 00:31:52;;;;;;;;;;;20.20;91.60;20.40;99329.00;;;;342813;28;94332;-88
2023/06/06 00:32:04;;;;;;;;;;;20.20;91.80;20.20;99336.00;;;;343728;28;83521;-88
2023/06/06 00:32:16;;;;;;;;;;;20.20;92.10;20.20;99338.00;;;;340336;28;94641;-88
2023/06/06 00:32:28;;;;;;;;;;;20.20;92.20;20.30;99330.00;;;;341015;28;82507;-88
2023/06/06 00:32:40;;;;;;;;;;;20.20;92.20;20.40;99332.00;;;;342860;28;94705;-88
2023/06/06 00:32:53;;;;;;;;;;;20.20;91.90;20.40;99342.00;;;;344928;28;83441;-88
2023/06/06 00:33:05;;;;;;;;;;;20.20;92.10;20.50;99336.00;;;;344234;28;94811;-88
2023/06/06 00:33:17;;;;;;;;;;;20.20;91.90;20.30;99333.00;;;;344965;28;83507;-89
2023/06/06 00:33:29;;;;;;;;;;;20.20;92.10;20.30;99332.00;;;;342916;28;96068;-88
2023/06/06 00:33:41;;;;;;;;;;;20.20;92.30;20.10;99329.00;;;;347913;28;82369;-88
2023/06/06 00:33:53;;;;;;;;;;;20.20;92.40;20.10;99341.00;;;;344127;28;93817;-88
2023/06/06 00:34:04;;;;;;;;;;;20.20;92.50;20.20;99337.00;;;;343592;28;83422;-88
2023/06/06 00:34:16;;;;;;;;;;;20.20;92.50;20.20;99337.00;;;;341595;28;95352;-88
2023/06/06 00:34:28;;;;;;;;;;;20.20;92.70;19.90;99330.00;;;;343632;28;83368;-88
2023/06/06 00:34:40;;;;;;;;;;;20.10;93.00;19.70;99339.00;;;;344586;28;96038;-88
2023/06/06 00:34:52;;;;;;;;;;;20.10;92.80;19.70;99335.00;;;;342554;28;83324;-88
2023/06/06 00:35:04;;;;;;;;;;;20.10;92.90;19.70;99331.00;;;;343248;28;93191;-88
2023/06/06 00:35:16;;;;;;;;;;;20.10;92.80;19.60;99338.00;;;;341283;28;82553;-88
2023/06/06 00:35:27;;;;;;;;;;;20.10;93.00;19.50;99340.00;;;;344503;28;96156;-88
2023/06/06 00:35:39;;;;;;;;;;;20.00;93.10;19.50;99334.00;;;;347526;28;83290;-87
2023/06/06 00:35:51;;;;;;;;;;;20.00;93.20;19.60;99333.00;;;;342747;28;95683;-87
2023/06/06 00:36:03;;;;;;;;;;;20.00;93.30;19.60;99331.00;;;;344625;28;82452;-85
2023/06/06 00:36:15;;;;;;;;;;;20.00;93.20;19.70;99341.00;;;;344871;28;96835;-86
2023/06/06 00:36:27;;;;;;;;;;;20.00;93.20;19.80;99339.00;;;;344217;28;83318;-86
2023/06/06 00:36:39;;;;;;;;;;;20.00;93.10;19.80;99332.00;;;;340914;28;94476;-86
2023/06/06 00:36:51;;;;;;;;;;;20.00;92.90;19.90;99340.00;;;;341489;28;83306;-87
2023/06/06 00:37:02;;;;;;;;;;;19.90;92.70;19.80;99329.00;;;;343455;28;97065;-86
2023/06/06 00:37:15;;;;;;;;;;;19.90;93.10;19.80;99333.00;;;;343993;28;83843;-86
2023/06/06 00:37:26;;;;;;;;;;;19.90;93.00;19.80;99332.00;;;;342258;28;95080;-86
2023/06/06 00:37:38;;;;;;;;;;;19.90;92.90;19.60;99337.00;;;;342852;28;83291;-86
2023/06/06 00:37:50;;;;;;;;;;;19.90;93.40;19.70;99331.00;;;;342217;28;93188;-86
2023/06/06 00:38:02;;;;;;;;;;;19.90;93.50;19.80;99330.00;;;;342771;28;82557;-87
2023/06/06 00:38:14;;;;;;;;;;;19.90;93.30;19.70;99333.00;;;;341691;28;95540;-86
2023/06/06 00:38:26;;;;;;;;;;;19.90;93.10;19.70;99338.00;;;;342731;28;82468;-86
2023/06/06 00:38:37;;;;;;;;;;;19.90;93.30;19.50;99344.00;;;;341950;28;94367;-86
2023/06/06 00:38:50;;;;;;;;;;;19.80;93.40;19.50;99336.00;;;;343026;28;82385;-86
2023/06/06 00:39:02;;;;;;;;;;;19.80;93.40;19.50;99337.00;;;;343513;28;92629;-86
2023/06/06 00:39:14;;;;;;;;;;;19.80;93.30;19.50;99333.00;;;;340075;28;82565;-86
2023/06/06 00:39:25;;;;;;;;;;;19.80;93.40;19.50;99342.00;;;;343231;28;95474;-86
2023/06/06 00:39:37;;;;;;;;;;;19.80;93.60;19.50;99337.00;;;;344078;28;82468;-87
2023/06/06 00:39:49;;;;;;;;;;;19.80;93.40;19.60;99338.00;;;;343359;28;96155;-86
2023/06/06 00:40:01;;;;;;;;;;;19.80;93.20;19.70;99336.00;;;;343900;28;83488;-86
2023/06/06 00:40:13;;;;;;;;;;;19.80;93.20;19.60;99338.00;;;;343276;28;93084;-86
2023/06/06 00:40:25;;;;;;;;;;;19.80;93.20;19.60;99335.00;;;;344035;28;83272;-86
2023/06/06 00:40:36;;;;;;;;;;;19.80;93.40;19.60;99347.00;;;;343104;28;96989;-86
2023/06/06 00:40:48;;;;;;;;;;;19.80;93.40;19.50;99336.00;;;;344018;28;82373;-86
2023/06/06 00:41:00;;;;;;;;;;;19.80;93.50;19.40;99336.00;;;;340263;28;95377;-86
2023/06/06 00:41:12;;;;;;;;;;;19.80;93.60;19.40;99341.00;;;;342483;28;83508;-86
2023/06/06 00:41:24;;;;;;;;;;;19.70;93.70;19.30;99339.00;;;;341958;28;93621;-86
2023/06/06 00:41:36;;;;;;;;;;;19.70;93.50;19.30;99344.00;;;;342154;28;82453;-86
2023/06/06 00:41:48;;;;;;;;;;;19.70;93.50;19.30;99338.00;;;;339819;28;97145;-87
2023/06/06 00:42:00;;;;;;;;;;;19.70;93.50;19.40;99347.00;;;;340598;28;83443;-87
2023/06/06 00:42:12;;;;;;;;;;;19.70;93.60;19.60;99344.00;;;;341160;28;97575;-86
2023/06/06 00:42:23;;;;;;;;;;;19.70;93.40;19.60;99345.00;;;;344768;28;83335;-86
2023/06/06 00:42:35;;;;;;;;;;;19.70;93.40;19.50;99341.00;;;;342457;28;95520;-86
2023/06/06 00:42:48;;;;;;;;;;;19.70;93.50;19.40;99334.00;;;;341976;28;82583;-86
2023/06/06 00:43:00;;;;;;;;;;;19.60;93.60;19.50;99346.00;;;;343899;28;97155;-86
2023/06/06 00:43:12;;;;;;;;;;;19.70;93.60;19.50;99340.00;;;;344573;28;83374;-86
2023/06/06 00:43:24;;;;;;;;;;;19.60;93.80;19.50;99340.00;;;;343822;28;97384;-86
2023/06/06 00:43:35;;;;;;;;;;;19.60;93.90;19.30;99343.00;;;;343284;28;82445;-86
2023/06/06 00:43:47;;;;;;;;;;;19.60;93.80;19.40;99340.00;;;;342535;28;97034;-87
2023/06/06 00:43:59;;;;;;;;;;;19.60;93.70;19.40;99335.00;;;;343361;28;82277;-87
2023/06/06 00:44:11;;;;;;;;;;;19.60;93.70;19.50;99345.00;;;;339896;28;94400;-87
2023/06/06 00:44:23;;;;;;;;;;;19.60;93.60;19.50;99339.00;;;;343379;28;82425;-86
2023/06/06 00:44:34;;;;;;;;;;;19.60;93.60;19.50;99346.00;;;;339944;28;94280;-87
2023/06/06 00:44:46;;;;;;;;;;;19.60;93.70;19.40;99347.00;;;;344760;28;83385;-86
2023/06/06 00:44:58;;;;;;;;;;;19.60;93.70;19.40;99340.00;;;;345259;28;96916;-86
2023/06/06 00:45:10;;;;;;;;;;;19.60;93.70;19.40;99342.00;;;;343264;28;83410;-87
2023/06/06 00:45:22;;;;;;;;;;;19.60;93.70;19.50;99337.00;;;;342477;28;96951;-86
2023/06/06 00:45:34;;;;;;;;;;;19.60;93.70;19.50;99339.00;;;;344647;28;83199;-86
2023/06/06 00:45:46;;;;;;;;;;;19.50;93.40;19.60;99330.00;;;;342538;28;95478;-86
2023/06/06 00:45:58;;;;;;;;;;;19.60;93.30;19.60;99337.00;;;;343286;28;83476;-86
2023/06/06 00:46:10;;;;;;;;;;;19.60;93.60;19.80;99330.00;;;;343996;28;92907;-86
2023/06/06 00:46:22;;;;;;;;;;;19.50;93.50;19.70;99333.00;;;;344652;28;83453;-86
2023/06/06 00:46:33;;;;;;;;;;;19.60;93.50;19.60;99344.00;;;;346579;27;97159;-86
2023/06/06 00:46:45;;;;;;;;;;;19.50;93.70;19.70;99335.00;;;;346091;28;83355;-86
2023/06/06 00:46:57;;;;;;;;;;;19.60;93.50;19.70;99336.00;;;;343987;28;93533;-86
2023/06/06 00:47:09;;;;;;;;;;;19.60;93.40;19.70;99333.00;;;;346019;28;83530;-87
2023/06/06 00:47:21;;;;;;;;;;;19.60;93.20;19.70;99334.00;;;;343818;28;97769;-86
2023/06/06 00:47:33;;;;;;;;;;;19.60;93.40;19.60;99340.00;;;;340562;28;83425;-86
2023/06/06 00:47:45;;;;;;;;;;;19.60;93.90;19.60;99341.00;;;;340965;28;97274;-86
2023/06/06 00:47:57;;;;;;;;;;;19.50;93.90;19.50;99338.00;;;;343235;28;83439;-86
2023/06/06 00:48:09;;;;;;;;;;;19.50;93.90;19.60;99344.00;;;;341187;28;94991;-86
2023/06/06 00:48:22;;;;;;;;;;;19.50;93.90;19.60;99335.00;;;;343284;28;83443;-86
2023/06/06 00:48:34;;;;;;;;;;;19.50;93.90;19.60;99337.00;;;;345261;28;96396;-86
2023/06/06 00:48:46;;;;;;;;;;;19.50;93.60;19.60;99338.00;;;;343383;28;83524;-86
2023/06/06 00:48:58;;;;;;;;;;;19.50;94.00;19.60;99329.00;;;;341250;28;93488;-86
2023/06/06 00:49:11;;;;;;;;;;;19.50;93.70;19.60;99337.00;;;;343319;28;83495;-86
2023/06/06 00:49:23;;;;;;;;;;;19.50;93.70;19.60;99339.00;;;;341113;28;98461;-86
2023/06/06 00:49:35;;;;;;;;;;;19.50;93.70;19.60;99329.00;;;;340705;28;82446;-86
2023/06/06 00:49:47;;;;;;;;;;;19.50;93.60;19.60;99332.00;;;;342528;28;96363;-87
2023/06/06 00:49:59;;;;;;;;;;;19.50;93.90;19.60;99333.00;;;;343377;28;82593;-86
2023/06/06 00:50:12;;;;;;;;;;;19.50;93.60;19.60;99336.00;;;;341110;28;95827;-86
2023/06/06 00:50:25;;;;;;;;;;;19.50;93.60;19.60;99334.00;;;;343379;28;83260;-87
2023/06/06 00:50:38;;;;;;;;;;;19.50;93.70;19.60;99334.00;;;;342622;28;94678;-86
2023/06/06 00:50:50;;;;;;;;;;;19.50;93.50;19.70;99330.00;;;;343438;28;83219;-87
2023/06/06 00:51:02;;;;;;;;;;;19.50;93.20;19.60;99332.00;;;;339846;28;96172;-86
2023/06/06 00:51:15;;;;;;;;;;;19.50;93.30;19.60;99331.00;;;;339195;28;83429;-86
2023/06/06 00:51:26;;;;;;;;;;;19.50;93.50;19.70;99331.00;;;;341112;28;98169;-86
2023/06/06 00:51:38;;;;;;;;;;;19.50;93.20;19.70;99330.00;;;;341996;28;82517;-86
2023/06/06 00:51:50;;;;;;;;;;;19.50;93.20;19.80;99326.00;;;;339780;28;97490;-86
2023/06/06 00:52:02;;;;;;;;;;;19.50;93.20;19.80;99334.00;;;;341971;28;83451;-86
2023/06/06 00:52:14;;;;;;;;;;;19.50;93.20;19.80;99327.00;;;;341210;28;96398;-86
2023/06/06 00:52:27;;;;;;;;;;;19.50;93.30;19.80;99329.00;;;;341994;28;83390;-87
2023/06/06 00:52:40;;;;;;;;;;;19.50;93.30;19.80;99336.00;;;;342603;28;93762;-86
2023/06/06 00:52:51;;;;;;;;;;;19.50;93.30;19.70;99336.00;;;;343326;28;83209;-86
2023/06/06 00:53:03;;;;;;;;;;;19.50;93.60;19.70;99327.00;;;;342528;28;97247;-87
2023/06/06 00:53:15;;;;;;;;;;;19.50;93.50;19.70;99338.00;;;;344636;28;82529;-87
2023/06/06 00:53:27;;;;;;;;;;;19.50;93.50;19.70;99333.00;;;;343831;28;98459;-86
2023/06/06 00:53:39;;;;;;;;;;;19.50;93.50;19.70;99331.00;;;;343252;28;83461;-86
2023/06/06 00:53:52;;;;;;;;;;;19.50;93.60;19.80;99335.00;;;;345304;28;94500;-87
2023/06/06 00:54:06;;;;;;;;;;;19.50;93.30;19.90;99336.00;;;;343385;28;83256;-87
2023/06/06 00:54:18;;;;;;;;;;;19.50;93.30;19.80;99330.00;;;;341215;28;92538;-86
2023/06/06 00:54:33;;;;;;;;;;;19.50;93.50;19.90;99338.00;;;;346005;28;83426;-86
2023/06/06 00:54:44;;;;;;;;;;;19.50;93.40;19.80;99337.00;;;;341249;28;96540;-86
2023/06/06 00:54:57;;;;;;;;;;;19.50;93.60;19.70;99343.00;;;;341918;28;83311;-87
2023/06/06 00:55:09;;;;;;;;;;;19.60;93.70;19.60;99336.00;;;;343787;28;97327;-86
2023/06/06 00:55:21;;;;;;;;;;;19.50;93.80;19.60;99335.00;;;;344643;28;83394;-86
2023/06/06 00:55:34;;;;;;;;;;;19.50;93.90;19.60;99338.00;;;;342454;28;97824;-86
2023/06/06 00:55:46;;;;;;;;;;;19.50;93.80;19.70;99339.00;;;;340649;28;83150;-87
2023/06/06 00:55:58;;;;;;;;;;;19.50;93.60;19.70;99339.00;;;;341227;28;95451;-87
2023/06/06 00:56:13;;;;;;;;;;;19.60;93.40;19.90;99340.00;;;;344697;28;83345;-86
2023/06/06 00:56:28;;;;;;;;;;;19.50;93.50;19.90;99342.00;;;;341202;28;94489;-86
2023/06/06 00:56:40;;;;;;;;;;;19.60;93.50;19.70;99334.00;;;;343439;28;82453;-86
2023/06/06 00:56:52;;;;;;;;;;;19.50;93.60;19.70;99336.00;;;;342648;28;92842;-87
2023/06/06 00:57:07;;;;;;;;;;;19.60;93.70;19.70;99332.00;;;;340694;28;83257;-86
2023/06/06 00:57:20;;;;;;;;;;;19.60;93.80;19.80;99336.00;;;;341255;28;93839;-87
2023/06/06 00:57:32;;;;;;;;;;;19.50;93.60;19.80;99333.00;;;;344720;28;83202;-86
2023/06/06 00:57:45;;;;;;;;;;;19.50;93.70;19.80;99339.00;;;;339817;28;95366;-87
2023/06/06 00:57:59;;;;;;;;;;;19.50;93.50;19.80;99339.00;;;;343202;28;83585;-86
2023/06/06 00:58:12;;;;;;;;;;;19.50;93.30;19.90;99338.00;;;;343918;28;93781;-87
2023/06/06 00:58:23;;;;;;;;;;;19.60;93.40;19.90;99340.00;;;;341914;28;82510;-87
2023/06/06 00:58:35;;;;;;;;;;;19.50;93.40;19.80;99341.00;;;;342476;28;97176;-86
2023/06/06 00:58:48;;;;;;;;;;;19.60;93.50;19.80;99348.00;;;;343449;28;83316;-86
2023/06/06 00:59:01;;;;;;;;;;;19.50;93.60;19.70;99339.00;;;;341212;28;95490;-86
2023/06/06 00:59:13;;;;;;;;;;;19.60;93.70;19.70;99344.00;;;;343285;28;83404;-87
2023/06/06 00:59:24;;;;;;;;;;;19.50;93.80;19.80;99342.00;;;;339874;28;96764;-86
2023/06/06 00:59:37;;;;;;;;;;;19.50;93.60;19.90;99334.00;;;;339454;28;83304;-87
2023/06/06 00:59:49;;;;;;;;;;;19.60;93.60;20.00;99337.00;;;;342527;28;95578;-87
2023/06/06 01:00:05;;;;;;;;;;;19.60;93.70;19.90;99341.00;;;;344673;28;83379;-86
2023/06/06 01:00:17;;;;;;;;;;;19.60;93.80;19.70;99337.00;;;;342496;28;95575;-86
2023/06/06 01:00:32;;;;;;;;;;;19.60;93.90;19.70;99342.00;;;;344663;28;82537;-86
2023/06/06 01:00:44;;;;;;;;;;;19.60;94.00;19.70;99347.00;;;;345360;28;96590;-86
2023/06/06 01:00:56;;;;;;;;;;;19.60;94.10;19.60;99343.00;;;;341897;28;83446;-86
2023/06/06 01:01:10;;;;;;;;;;;19.60;94.00;19.80;99340.00;;;;345310;28;94198;-87
2023/06/06 01:01:25;;;;;;;;;;;19.50;93.90;19.60;99344.00;;;;343390;28;82492;-87
2023/06/06 01:01:37;;;;;;;;;;;19.50;94.40;19.50;99345.00;;;;342470;28;97219;-86